sensor_id;sensor_type;location;lat;lon;timestamp;pressure;altitude;pressure_sealevel;temperature;humidity
33859;BME280;20156;47.486;12.074;2022-10-16T00:00:34;91507.41;;;12.28;100.00
33859;BME280;20156;47.486;12.074;2022-10-16T00:03:01;91511.09;;;12.27;100.00
33859;BME280;20156;47.486;12.074;2022-10-16T00:05:27;91502.03;;;12.24;100.00
33859;BME280;20156;47.486;12.074;2022-10-16T00:07:52;91491.63;;;12.33;100.00
33859;BME280;20156;47.486;12.074;2022-10-16T00:10:18;91499.75;;;12.31;100.00
33859;BME280;20156;47.486;12.074;2022-10-16T00:12:43;91496.22;;;12.19;100.00
33859;BME280;20156;47.486;12.074;2022-10-16T00:15:09;91504.94;;;12.14;100.00
33859;BME280;20156;47.486;12.074;2022-10-16T00:17:34;91506.03;;;12.13;100.00
33859;BME280;20156;47.486;12.074;2022-10-16T00:20:00;91521.97;;;12.12;100.00
33859;BME280;20156;47.486;12.074;2022-10-16T00:22:25;91528.25;;;12.11;100.00
33859;BME280;20156;47.486;12.074;2022-10-16T00:24:50;91532.69;;;12.10;100.00
33859;BME280;20156;47.486;12.074;2022-10-16T00:27:16;91536.06;;;12.11;100.00
33859;BME280;20156;47.486;12.074;2022-10-16T00:29:42;91528.56;;;12.18;100.00
33859;BME280;20156;47.486;12.074;2022-10-16T00:32:08;91518.28;;;12.21;100.00
33859;BME280;20156;47.486;12.074;2022-10-16T00:34:33;91533.16;;;12.12;100.00
33859;BME280;20156;47.486;12.074;2022-10-16T00:36:59;91548.44;;;12.05;100.00
33859;BME280;20156;47.486;12.074;2022-10-16T00:39:24;91551.66;;;11.93;100.00
33859;BME280;20156;47.486;12.074;2022-10-16T00:41:50;91558.84;;;11.96;100.00
33859;BME280;20156;47.486;12.074;2022-10-16T00:44:51;91563.41;;;11.91;100.00
33859;BME280;20156;47.486;12.074;2022-10-16T00:47:29;91585.31;;;11.81;100.00
33859;BME280;20156;47.486;12.074;2022-10-16T00:50:04;91572.91;;;11.87;100.00
33859;BME280;20156;47.486;12.074;2022-10-16T00:52:31;91556.97;;;11.88;100.00
33859;BME280;20156;47.486;12.074;2022-10-16T00:54:57;91526.22;;;12.08;100.00
33859;BME280;20156;47.486;12.074;2022-10-16T00:57:24;91500.66;;;12.10;100.00
33859;BME280;20156;47.486;12.074;2022-10-16T00:59:50;91467.56;;;12.10;100.00
33859;BME280;20156;47.486;12.074;2022-10-16T01:02:16;91447.75;;;12.09;100.00
33859;BME280;20156;47.486;12.074;2022-10-16T01:04:50;91441.94;;;12.03;100.00
33859;BME280;20156;47.486;12.074;2022-10-16T01:10:11;91435.66;;;11.87;100.00
33859;BME280;20156;47.486;12.074;2022-10-16T01:12:45;91445.56;;;11.77;100.00
33859;BME280;20156;47.486;12.074;2022-10-16T01:15:31;91442.66;;;11.78;100.00
33859;BME280;20156;47.486;12.074;2022-10-16T01:21:06;91434.56;;;11.88;100.00
33859;BME280;20156;47.486;12.074;2022-10-16T01:23:38;91450.97;;;11.80;100.00
33859;BME280;20156;47.486;12.074;2022-10-16T01:26:28;91448.19;;;11.85;100.00
33859;BME280;20156;47.486;12.074;2022-10-16T01:29:06;91442.06;;;11.90;100.00
33859;BME280;20156;47.486;12.074;2022-10-16T01:31:36;91445.00;;;11.88;100.00
33859;BME280;20156;47.486;12.074;2022-10-16T01:34:15;91456.00;;;11.77;100.00
33859;BME280;20156;47.486;12.074;2022-10-16T01:36:48;91473.88;;;11.69;100.00
33859;BME280;20156;47.486;12.074;2022-10-16T01:39:15;91475.72;;;11.69;100.00
33859;BME280;20156;47.486;12.074;2022-10-16T01:41:49;91465.91;;;11.74;100.00
33859;BME280;20156;47.486;12.074;2022-10-16T01:44:21;91465.16;;;11.65;100.00
33859;BME280;20156;47.486;12.074;2022-10-16T01:46:51;91463.59;;;11.64;100.00
33859;BME280;20156;47.486;12.074;2022-10-16T01:49:20;91470.03;;;11.67;100.00
33859;BME280;20156;47.486;12.074;2022-10-16T01:51:49;91491.13;;;11.48;100.00
33859;BME280;20156;47.486;12.074;2022-10-16T01:54:17;91504.91;;;11.49;100.00
33859;BME280;20156;47.486;12.074;2022-10-16T01:56:45;91507.34;;;11.45;100.00
33859;BME280;20156;47.486;12.074;2022-10-16T01:59:14;91511.78;;;11.44;100.00
33859;BME280;20156;47.486;12.074;2022-10-16T02:01:49;91522.50;;;11.43;100.00
33859;BME280;20156;47.486;12.074;2022-10-16T02:04:20;91532.59;;;11.44;100.00
33859;BME280;20156;47.486;12.074;2022-10-16T02:06:46;91527.13;;;11.55;100.00
33859;BME280;20156;47.486;12.074;2022-10-16T02:09:12;91551.69;;;11.40;100.00
33859;BME280;20156;47.486;12.074;2022-10-16T02:11:38;91548.94;;;11.36;100.00
33859;BME280;20156;47.486;12.074;2022-10-16T02:14:06;91545.22;;;11.29;100.00
33859;BME280;20156;47.486;12.074;2022-10-16T02:16:45;91574.31;;;11.08;100.00
33859;BME280;20156;47.486;12.074;2022-10-16T02:19:15;91570.13;;;11.21;100.00
33859;BME280;20156;47.486;12.074;2022-10-16T02:21:54;91571.78;;;11.17;100.00
33859;BME280;20156;47.486;12.074;2022-10-16T02:24:35;91602.00;;;11.04;100.00
33859;BME280;20156;47.486;12.074;2022-10-16T02:27:34;91619.47;;;10.90;100.00
33859;BME280;20156;47.486;12.074;2022-10-16T02:30:15;91622.28;;;10.94;100.00
33859;BME280;20156;47.486;12.074;2022-10-16T02:32:44;91628.88;;;11.00;100.00
33859;BME280;20156;47.486;12.074;2022-10-16T02:35:12;91628.47;;;11.06;100.00
33859;BME280;20156;47.486;12.074;2022-10-16T02:37:38;91628.06;;;11.13;100.00
33859;BME280;20156;47.486;12.074;2022-10-16T02:40:06;91645.44;;;11.04;100.00
33859;BME280;20156;47.486;12.074;2022-10-16T02:42:37;91677.97;;;10.79;100.00
33859;BME280;20156;47.486;12.074;2022-10-16T02:45:04;91669.09;;;10.94;100.00
33859;BME280;20156;47.486;12.074;2022-10-16T02:47:30;91672.81;;;11.01;100.00
33859;BME280;20156;47.486;12.074;2022-10-16T02:49:55;91708.00;;;10.71;100.00
33859;BME280;20156;47.486;12.074;2022-10-16T02:52:21;91742.19;;;10.51;100.00
33859;BME280;20156;47.486;12.074;2022-10-16T02:54:46;91748.66;;;10.53;100.00
33859;BME280;20156;47.486;12.074;2022-10-16T02:57:11;91753.75;;;10.59;100.00
33859;BME280;20156;47.486;12.074;2022-10-16T02:59:37;91755.00;;;10.61;100.00
33859;BME280;20156;47.486;12.074;2022-10-16T03:02:03;91771.56;;;10.65;100.00
33859;BME280;20156;47.486;12.074;2022-10-16T03:04:28;91764.91;;;10.73;100.00
33859;BME280;20156;47.486;12.074;2022-10-16T03:06:54;91762.22;;;10.78;100.00
33859;BME280;20156;47.486;12.074;2022-10-16T03:09:19;91769.81;;;10.74;100.00
33859;BME280;20156;47.486;12.074;2022-10-16T03:11:44;91768.78;;;10.75;100.00
33859;BME280;20156;47.486;12.074;2022-10-16T03:14:10;91774.25;;;10.74;100.00
33859;BME280;20156;47.486;12.074;2022-10-16T03:16:35;91775.59;;;10.71;100.00
33859;BME280;20156;47.486;12.074;2022-10-16T03:19:01;91777.34;;;10.76;100.00
33859;BME280;20156;47.486;12.074;2022-10-16T03:21:26;91796.38;;;10.58;100.00
33859;BME280;20156;47.486;12.074;2022-10-16T03:23:51;91796.13;;;10.59;100.00
33859;BME280;20156;47.486;12.074;2022-10-16T03:26:17;91777.63;;;10.61;100.00
33859;BME280;20156;47.486;12.074;2022-10-16T03:28:42;91755.38;;;10.68;100.00
33859;BME280;20156;47.486;12.074;2022-10-16T03:31:08;91725.84;;;10.78;100.00
33859;BME280;20156;47.486;12.074;2022-10-16T03:33:33;91700.78;;;10.82;100.00
33859;BME280;20156;47.486;12.074;2022-10-16T03:35:59;91681.41;;;10.88;100.00
33859;BME280;20156;47.486;12.074;2022-10-16T03:38:25;91652.72;;;10.93;100.00
33859;BME280;20156;47.486;12.074;2022-10-16T03:40:50;91655.41;;;10.88;100.00
33859;BME280;20156;47.486;12.074;2022-10-16T03:43:16;91684.44;;;10.54;100.00
33859;BME280;20156;47.486;12.074;2022-10-16T03:45:41;91678.88;;;10.61;100.00
33859;BME280;20156;47.486;12.074;2022-10-16T03:48:06;91685.59;;;10.62;100.00
33859;BME280;20156;47.486;12.074;2022-10-16T03:50:32;91687.91;;;10.63;100.00
33859;BME280;20156;47.486;12.074;2022-10-16T03:52:57;91673.84;;;10.64;100.00
33859;BME280;20156;47.486;12.074;2022-10-16T03:55:23;91679.81;;;10.65;100.00
33859;BME280;20156;47.486;12.074;2022-10-16T03:57:48;91699.19;;;10.59;100.00
33859;BME280;20156;47.486;12.074;2022-10-16T04:00:14;91701.56;;;10.55;100.00
33859;BME280;20156;47.486;12.074;2022-10-16T04:02:39;91710.81;;;10.61;100.00
33859;BME280;20156;47.486;12.074;2022-10-16T04:05:05;91712.84;;;10.64;100.00
33859;BME280;20156;47.486;12.074;2022-10-16T04:07:31;91741.06;;;10.43;100.00
33859;BME280;20156;47.486;12.074;2022-10-16T04:09:56;91775.09;;;10.28;100.00
33859;BME280;20156;47.486;12.074;2022-10-16T04:12:24;91764.16;;;10.45;100.00
33859;BME280;20156;47.486;12.074;2022-10-16T04:14:49;91759.22;;;10.57;100.00
33859;BME280;20156;47.486;12.074;2022-10-16T04:17:15;91779.25;;;10.43;100.00
33859;BME280;20156;47.486;12.074;2022-10-16T04:19:41;91807.63;;;10.26;100.00
33859;BME280;20156;47.486;12.074;2022-10-16T04:22:06;91822.91;;;10.27;100.00
33859;BME280;20156;47.486;12.074;2022-10-16T04:24:32;91813.34;;;10.41;100.00
33859;BME280;20156;47.486;12.074;2022-10-16T04:26:57;91822.16;;;10.40;100.00
33859;BME280;20156;47.486;12.074;2022-10-16T04:29:23;91855.47;;;10.19;100.00
33859;BME280;20156;47.486;12.074;2022-10-16T04:31:48;91874.22;;;10.16;100.00
33859;BME280;20156;47.486;12.074;2022-10-16T04:34:13;91894.38;;;10.06;100.00
33859;BME280;20156;47.486;12.074;2022-10-16T04:36:39;91896.19;;;10.05;100.00
33859;BME280;20156;47.486;12.074;2022-10-16T04:39:04;91888.47;;;10.19;100.00
33859;BME280;20156;47.486;12.074;2022-10-16T04:41:29;91883.06;;;10.15;100.00
33859;BME280;20156;47.486;12.074;2022-10-16T04:43:55;91878.66;;;10.16;100.00
33859;BME280;20156;47.486;12.074;2022-10-16T04:46:20;91873.72;;;10.14;100.00
33859;BME280;20156;47.486;12.074;2022-10-16T04:48:46;91873.44;;;10.16;100.00
33859;BME280;20156;47.486;12.074;2022-10-16T04:51:12;91876.91;;;10.11;100.00
33859;BME280;20156;47.486;12.074;2022-10-16T04:53:37;91885.59;;;10.02;100.00
33859;BME280;20156;47.486;12.074;2022-10-16T04:56:03;91868.19;;;10.02;100.00
33859;BME280;20156;47.486;12.074;2022-10-16T04:58:28;91844.19;;;10.10;100.00
33859;BME280;20156;47.486;12.074;2022-10-16T05:00:54;91833.25;;;10.13;100.00
33859;BME280;20156;47.486;12.074;2022-10-16T05:03:19;91833.25;;;10.13;100.00
33859;BME280;20156;47.486;12.074;2022-10-16T05:05:45;91807.41;;;10.22;100.00
33859;BME280;20156;47.486;12.074;2022-10-16T05:08:12;91813.91;;;10.19;100.00
33859;BME280;20156;47.486;12.074;2022-10-16T05:10:38;91804.81;;;10.22;100.00
33859;BME280;20156;47.486;12.074;2022-10-16T05:13:04;91807.19;;;10.18;100.00
33859;BME280;20156;47.486;12.074;2022-10-16T05:15:29;91818.72;;;10.12;100.00
33859;BME280;20156;47.486;12.074;2022-10-16T05:17:55;91817.66;;;10.13;100.00
33859;BME280;20156;47.486;12.074;2022-10-16T05:20:22;91813.38;;;10.22;100.00
33859;BME280;20156;47.486;12.074;2022-10-16T05:22:48;91808.00;;;10.33;100.00
33859;BME280;20156;47.486;12.074;2022-10-16T05:25:13;91799.53;;;10.41;100.00
33859;BME280;20156;47.486;12.074;2022-10-16T05:27:39;91803.00;;;10.36;100.00
33859;BME280;20156;47.486;12.074;2022-10-16T05:30:04;91821.09;;;10.28;100.00
33859;BME280;20156;47.486;12.074;2022-10-16T05:32:30;91829.94;;;10.27;100.00
33859;BME280;20156;47.486;12.074;2022-10-16T05:34:55;91854.78;;;10.14;100.00
33859;BME280;20156;47.486;12.074;2022-10-16T05:37:21;91855.47;;;10.19;100.00
33859;BME280;20156;47.486;12.074;2022-10-16T05:39:46;91864.00;;;10.25;100.00
33859;BME280;20156;47.486;12.074;2022-10-16T05:42:12;91881.94;;;10.21;100.00
33859;BME280;20156;47.486;12.074;2022-10-16T05:44:37;91904.22;;;10.09;100.00
33859;BME280;20156;47.486;12.074;2022-10-16T05:47:03;91903.94;;;10.10;100.00
33859;BME280;20156;47.486;12.074;2022-10-16T05:49:28;91907.59;;;10.09;100.00
33859;BME280;20156;47.486;12.074;2022-10-16T05:51:53;91915.91;;;10.06;100.00
33859;BME280;20156;47.486;12.074;2022-10-16T05:54:19;91910.25;;;10.23;100.00
33859;BME280;20156;47.486;12.074;2022-10-16T05:56:44;91921.16;;;10.20;100.00
33859;BME280;20156;47.486;12.074;2022-10-16T05:59:10;91909.31;;;10.33;100.00
33859;BME280;20156;47.486;12.074;2022-10-16T06:01:35;91907.22;;;10.35;100.00
33859;BME280;20156;47.486;12.074;2022-10-16T06:04:01;91910.22;;;10.42;100.00
33859;BME280;20156;47.486;12.074;2022-10-16T06:06:27;91896.00;;;10.53;100.00
33859;BME280;20156;47.486;12.074;2022-10-16T06:08:54;91891.72;;;10.62;100.00
33859;BME280;20156;47.486;12.074;2022-10-16T06:11:28;91903.72;;;10.58;100.00
33859;BME280;20156;47.486;12.074;2022-10-16T06:13:56;91918.63;;;10.52;100.00
33859;BME280;20156;47.486;12.074;2022-10-16T06:16:23;91924.25;;;10.60;100.00
33859;BME280;20156;47.486;12.074;2022-10-16T06:18:51;91915.34;;;10.79;100.00
33859;BME280;20156;47.486;12.074;2022-10-16T06:21:18;91916.31;;;10.97;100.00
33859;BME280;20156;47.486;12.074;2022-10-16T06:23:44;91934.34;;;10.94;100.00
33859;BME280;20156;47.486;12.074;2022-10-16T06:26:14;91960.81;;;10.96;100.00
33859;BME280;20156;47.486;12.074;2022-10-16T06:28:40;91992.28;;;10.80;100.00
33859;BME280;20156;47.486;12.074;2022-10-16T06:31:07;91994.38;;;10.78;100.00
33859;BME280;20156;47.486;12.074;2022-10-16T06:33:34;91997.97;;;10.82;100.00
33859;BME280;20156;47.486;12.074;2022-10-16T06:36:07;92029.66;;;10.66;100.00
33859;BME280;20156;47.486;12.074;2022-10-16T06:38:34;92048.16;;;10.64;100.00
33859;BME280;20156;47.486;12.074;2022-10-16T06:40:59;92073.22;;;10.55;100.00
33859;BME280;20156;47.486;12.074;2022-10-16T06:43:25;92041.38;;;10.82;100.00
33859;BME280;20156;47.486;12.074;2022-10-16T06:45:55;92021.03;;;11.03;100.00
33859;BME280;20156;47.486;12.074;2022-10-16T06:48:21;92033.63;;;10.96;100.00
33859;BME280;20156;47.486;12.074;2022-10-16T06:51:05;92026.66;;;10.91;100.00
33859;BME280;20156;47.486;12.074;2022-10-16T06:53:33;92022.09;;;11.02;100.00
33859;BME280;20156;47.486;12.074;2022-10-16T06:56:13;92015.78;;;11.22;100.00
33859;BME280;20156;47.486;12.074;2022-10-16T06:58:39;92044.38;;;10.89;100.00
33859;BME280;20156;47.486;12.074;2022-10-16T07:01:05;92045.16;;;10.90;100.00
33859;BME280;20156;47.486;12.074;2022-10-16T07:03:31;92046.34;;;10.97;100.00
33859;BME280;20156;47.486;12.074;2022-10-16T07:06:01;92045.34;;;11.12;100.00
33859;BME280;20156;47.486;12.074;2022-10-16T07:08:27;92059.59;;;11.14;100.00
33859;BME280;20156;47.486;12.074;2022-10-16T07:11:00;92086.97;;;11.12;100.00
33859;BME280;20156;47.486;12.074;2022-10-16T07:13:26;92121.34;;;10.90;100.00
33859;BME280;20156;47.486;12.074;2022-10-16T07:15:51;92121.63;;;10.89;100.00
33859;BME280;20156;47.486;12.074;2022-10-16T07:18:17;92080.19;;;11.30;100.00
33859;BME280;20156;47.486;12.074;2022-10-16T07:20:42;92060.56;;;11.51;100.00
33859;BME280;20156;47.486;12.074;2022-10-16T07:23:07;92043.78;;;11.57;100.00
33859;BME280;20156;47.486;12.074;2022-10-16T07:25:33;92036.94;;;11.75;100.00
33859;BME280;20156;47.486;12.074;2022-10-16T07:27:58;92045.56;;;11.89;100.00
33859;BME280;20156;47.486;12.074;2022-10-16T07:30:24;92061.78;;;12.00;100.00
33859;BME280;20156;47.486;12.074;2022-10-16T07:32:49;92063.13;;;12.11;100.00
33859;BME280;20156;47.486;12.074;2022-10-16T07:35:14;92060.28;;;12.35;100.00
33859;BME280;20156;47.486;12.074;2022-10-16T07:37:44;92078.53;;;12.49;100.00
33859;BME280;20156;47.486;12.074;2022-10-16T07:40:10;92101.00;;;12.58;100.00
33859;BME280;20156;47.486;12.074;2022-10-16T07:42:36;92093.25;;;12.81;100.00
33859;BME280;20156;47.486;12.074;2022-10-16T07:45:01;92099.97;;;12.95;100.00
33859;BME280;20156;47.486;12.074;2022-10-16T07:47:27;92125.03;;;13.05;100.00
33859;BME280;20156;47.486;12.074;2022-10-16T07:49:52;92143.09;;;13.15;100.00
33859;BME280;20156;47.486;12.074;2022-10-16T07:52:17;92170.81;;;13.25;100.00
33859;BME280;20156;47.486;12.074;2022-10-16T07:54:43;92190.72;;;13.35;100.00
33859;BME280;20156;47.486;12.074;2022-10-16T07:57:08;92211.88;;;13.47;100.00
33859;BME280;20156;47.486;12.074;2022-10-16T07:59:33;92221.78;;;13.59;100.00
33859;BME280;20156;47.486;12.074;2022-10-16T08:01:59;92244.31;;;13.68;100.00
33859;BME280;20156;47.486;12.074;2022-10-16T08:04:24;92265.25;;;13.77;100.00
33859;BME280;20156;47.486;12.074;2022-10-16T08:06:50;92299.03;;;13.73;100.00
33859;BME280;20156;47.486;12.074;2022-10-16T08:09:15;92319.00;;;13.69;100.00
33859;BME280;20156;47.486;12.074;2022-10-16T08:11:40;92316.31;;;13.97;100.00
33859;BME280;20156;47.486;12.074;2022-10-16T08:14:06;92317.69;;;14.17;100.00
33859;BME280;20156;47.486;12.074;2022-10-16T08:16:32;92346.31;;;14.22;100.00
33859;BME280;20156;47.486;12.074;2022-10-16T08:18:57;92391.88;;;14.07;100.00
33859;BME280;20156;47.486;12.074;2022-10-16T08:21:22;92395.38;;;14.38;100.00
33859;BME280;20156;47.486;12.074;2022-10-16T08:23:49;92417.53;;;14.41;100.00
33859;BME280;20156;47.486;12.074;2022-10-16T08:26:15;92445.25;;;14.42;100.00
33859;BME280;20156;47.486;12.074;2022-10-16T08:28:40;92469.25;;;14.58;100.00
33859;BME280;20156;47.486;12.074;2022-10-16T08:31:13;92468.31;;;14.76;100.00
33859;BME280;20156;47.486;12.074;2022-10-16T08:33:41;92474.88;;;14.87;100.00
33859;BME280;20156;47.486;12.074;2022-10-16T08:36:09;92503.16;;;14.99;100.00
33859;BME280;20156;47.486;12.074;2022-10-16T08:38:35;92529.00;;;14.78;100.00
33859;BME280;20156;47.486;12.074;2022-10-16T08:43:43;92525.88;;;15.12;100.00
33859;BME280;20156;47.486;12.074;2022-10-16T08:49:30;92592.69;;;15.68;100.00
33859;BME280;20156;47.486;12.074;2022-10-16T08:51:56;92654.69;;;15.14;100.00
33859;BME280;20156;47.486;12.074;2022-10-16T08:57:07;92616.09;;;15.64;100.00
33859;BME280;20156;47.486;12.074;2022-10-16T08:59:34;92629.72;;;15.98;100.00
33859;BME280;20156;47.486;12.074;2022-10-16T09:01:59;92659.63;;;16.28;100.00
33859;BME280;20156;47.486;12.074;2022-10-16T09:04:52;92694.88;;;16.35;100.00
33859;BME280;20156;47.486;12.074;2022-10-16T09:23:25;92878.59;;;17.33;100.00
33859;BME280;20156;47.486;12.074;2022-10-16T09:25:52;92919.03;;;17.55;100.00
33859;BME280;20156;47.486;12.074;2022-10-16T09:28:19;92948.75;;;17.55;100.00
33859;BME280;20156;47.486;12.074;2022-10-16T09:30:45;92993.44;;;17.55;100.00
33859;BME280;20156;47.486;12.074;2022-10-16T09:33:13;93020.06;;;17.62;100.00
33859;BME280;20156;47.486;12.074;2022-10-16T09:35:42;93026.38;;;17.75;100.00
33859;BME280;20156;47.486;12.074;2022-10-16T09:38:09;93034.97;;;17.89;100.00
33859;BME280;20156;47.486;12.074;2022-10-16T09:40:46;93080.16;;;17.91;100.00
33859;BME280;20156;47.486;12.074;2022-10-16T09:43:22;93136.72;;;18.02;100.00
33859;BME280;20156;47.486;12.074;2022-10-16T09:48:33;93100.75;;;18.20;100.00
33859;BME280;20156;47.486;12.074;2022-10-16T09:51:02;93150.06;;;18.37;100.00
33859;BME280;20156;47.486;12.074;2022-10-16T09:53:46;93214.50;;;18.40;100.00
33859;BME280;20156;47.486;12.074;2022-10-16T09:56:22;93225.63;;;18.59;100.00
33859;BME280;20156;47.486;12.074;2022-10-16T09:58:53;93257.69;;;18.61;100.00
33859;BME280;20156;47.486;12.074;2022-10-16T10:01:20;93257.81;;;18.78;100.00
33859;BME280;20156;47.486;12.074;2022-10-16T10:03:46;93306.41;;;18.94;100.00
33859;BME280;20156;47.486;12.074;2022-10-16T10:06:25;93323.69;;;18.78;100.00
33859;BME280;20156;47.486;12.074;2022-10-16T10:09:02;93246.69;;;18.81;100.00
33859;BME280;20156;47.486;12.074;2022-10-16T10:11:45;93218.81;;;18.89;100.00
33859;BME280;20156;47.486;12.074;2022-10-16T10:14:17;93251.91;;;19.04;100.00
33859;BME280;20156;47.486;12.074;2022-10-16T10:16:43;93307.47;;;19.16;100.00
33859;BME280;20156;47.486;12.074;2022-10-16T10:19:23;93320.69;;;18.93;100.00
33859;BME280;20156;47.486;12.074;2022-10-16T10:21:51;93291.66;;;19.16;100.00
33859;BME280;20156;47.486;12.074;2022-10-16T10:24:19;93308.91;;;19.31;100.00
33859;BME280;20156;47.486;12.074;2022-10-16T10:27:09;93397.59;;;19.49;100.00
33859;BME280;20156;47.486;12.074;2022-10-16T10:29:56;93420.78;;;19.61;100.00
33859;BME280;20156;47.486;12.074;2022-10-16T10:32:37;93397.91;;;19.16;100.00
33859;BME280;20156;47.486;12.074;2022-10-16T10:35:24;93418.59;;;19.54;100.00
33859;BME280;20156;47.486;12.074;2022-10-16T10:41:02;93528.66;;;20.16;100.00
33859;BME280;20156;47.486;12.074;2022-10-16T10:43:41;93542.13;;;20.05;100.00
33859;BME280;20156;47.486;12.074;2022-10-16T10:46:16;93541.72;;;20.21;100.00
33859;BME280;20156;47.486;12.074;2022-10-16T10:49:04;93581.72;;;20.36;100.00
33859;BME280;20156;47.486;12.074;2022-10-16T10:57:06;93725.16;;;20.59;100.00
33859;BME280;20156;47.486;12.074;2022-10-16T10:59:55;93767.75;;;20.58;100.00
33859;BME280;20156;47.486;12.074;2022-10-16T11:07:58;93792.47;;;21.15;100.00
33859;BME280;20156;47.486;12.074;2022-10-16T11:10:33;93846.19;;;20.93;100.00
33859;BME280;20156;47.486;12.074;2022-10-16T11:13:29;93830.00;;;20.86;100.00
33859;BME280;20156;47.486;12.074;2022-10-16T11:16:03;93758.34;;;20.29;100.00
33859;BME280;20156;47.486;12.074;2022-10-16T11:18:52;93679.25;;;20.02;100.00
33859;BME280;20156;47.486;12.074;2022-10-16T11:21:21;93692.50;;;20.55;100.00
33859;BME280;20156;47.486;12.074;2022-10-16T11:23:56;93725.88;;;20.73;100.00
33859;BME280;20156;47.486;12.074;2022-10-16T11:26:32;93751.13;;;21.19;100.00
33859;BME280;20156;47.486;12.074;2022-10-16T11:29:01;93870.19;;;21.19;100.00
33859;BME280;20156;47.486;12.074;2022-10-16T11:34:13;93800.84;;;21.71;100.00
33859;BME280;20156;47.486;12.074;2022-10-16T11:36:48;93765.94;;;21.77;100.00
33859;BME280;20156;47.486;12.074;2022-10-16T11:39:26;93809.88;;;21.78;100.00
33859;BME280;20156;47.486;12.074;2022-10-16T11:41:55;93847.28;;;21.85;100.00
33859;BME280;20156;47.486;12.074;2022-10-16T11:47:35;93979.75;;;21.94;100.00
33859;BME280;20156;47.486;12.074;2022-10-16T11:55:42;93920.66;;;22.25;100.00
33859;BME280;20156;47.486;12.074;2022-10-16T12:00:54;93916.88;;;22.08;100.00
33859;BME280;20156;47.486;12.074;2022-10-16T12:08:58;93844.72;;;21.32;100.00
33859;BME280;20156;47.486;12.074;2022-10-16T12:16:38;93864.38;;;21.71;100.00
33859;BME280;20156;47.486;12.074;2022-10-16T12:19:15;93914.53;;;22.07;100.00
33859;BME280;20156;47.486;12.074;2022-10-16T12:21:42;93956.03;;;21.89;100.00
33859;BME280;20156;47.486;12.074;2022-10-16T12:24:30;93895.09;;;21.49;100.00
33859;BME280;20156;47.486;12.074;2022-10-16T12:26:56;93945.31;;;21.94;100.00
33859;BME280;20156;47.486;12.074;2022-10-16T12:29:39;93903.94;;;22.07;100.00
33859;BME280;20156;47.486;12.074;2022-10-16T12:34:47;93947.00;;;21.90;100.00
33859;BME280;20156;47.486;12.074;2022-10-16T12:37:23;93952.78;;;21.92;100.00
33859;BME280;20156;47.486;12.074;2022-10-16T12:39:52;93920.50;;;22.21;100.00
33859;BME280;20156;47.486;12.074;2022-10-16T12:44:54;93909.06;;;22.69;100.00
33859;BME280;20156;47.486;12.074;2022-10-16T12:47:36;93931.97;;;22.65;100.00
33859;BME280;20156;47.486;12.074;2022-10-16T12:50:02;93921.22;;;22.70;100.00
33859;BME280;20156;47.486;12.074;2022-10-16T12:54:59;93869.09;;;23.00;100.00
33859;BME280;20156;47.486;12.074;2022-10-16T12:57:44;93889.41;;;22.96;100.00
33859;BME280;20156;47.486;12.074;2022-10-16T13:00:32;93909.69;;;23.00;100.00
33859;BME280;20156;47.486;12.074;2022-10-16T13:06:01;93943.78;;;22.50;100.00
33859;BME280;20156;47.486;12.074;2022-10-16T13:25:25;93800.63;;;22.93;100.00
33859;BME280;20156;47.486;12.074;2022-10-16T13:28:05;93763.66;;;22.88;100.00
33859;BME280;20156;47.486;12.074;2022-10-16T13:30:37;93736.44;;;23.00;100.00
33859;BME280;20156;47.486;12.074;2022-10-16T13:33:12;93741.31;;;22.89;100.00
33859;BME280;20156;47.486;12.074;2022-10-16T13:35:47;93731.75;;;23.05;100.00
33859;BME280;20156;47.486;12.074;2022-10-16T13:38:18;93725.38;;;22.98;100.00
33859;BME280;20156;47.486;12.074;2022-10-16T13:40:54;93762.50;;;22.98;100.00
33859;BME280;20156;47.486;12.074;2022-10-16T13:46:06;93770.97;;;22.91;100.00
33859;BME280;20156;47.486;12.074;2022-10-16T13:48:33;93743.19;;;22.89;100.00
33859;BME280;20156;47.486;12.074;2022-10-16T13:51:17;93709.94;;;22.91;100.00
33859;BME280;20156;47.486;12.074;2022-10-16T13:53:43;93715.13;;;22.88;100.00
33859;BME280;20156;47.486;12.074;2022-10-16T13:56:14;93742.56;;;22.83;100.00
33859;BME280;20156;47.486;12.074;2022-10-16T13:58:40;93732.78;;;22.58;100.00
33859;BME280;20156;47.486;12.074;2022-10-16T14:03:41;93731.09;;;22.27;100.00
33859;BME280;20156;47.486;12.074;2022-10-16T14:06:13;93701.94;;;22.27;100.00
33859;BME280;20156;47.486;12.074;2022-10-16T14:08:44;93678.56;;;22.38;100.00
33859;BME280;20156;47.486;12.074;2022-10-16T14:11:11;93710.97;;;22.52;100.00
33859;BME280;20156;47.486;12.074;2022-10-16T14:13:39;93773.34;;;22.15;100.00
33859;BME280;20156;47.486;12.074;2022-10-16T14:16:11;93706.78;;;22.42;100.00
33859;BME280;20156;47.486;12.074;2022-10-16T14:18:41;93703.06;;;22.17;100.00
33859;BME280;20156;47.486;12.074;2022-10-16T14:21:13;93710.69;;;22.10;100.00
33859;BME280;20156;47.486;12.074;2022-10-16T14:23:41;93686.34;;;22.00;100.00
33859;BME280;20156;47.486;12.074;2022-10-16T14:28:32;93686.06;;;21.92;100.00
33859;BME280;20156;47.486;12.074;2022-10-16T14:30:59;93694.94;;;21.88;100.00
33859;BME280;20156;47.486;12.074;2022-10-16T14:33:32;93691.00;;;21.59;100.00
33859;BME280;20156;47.486;12.074;2022-10-16T14:38:36;93695.31;;;21.29;100.00
33859;BME280;20156;47.486;12.074;2022-10-16T14:41:03;93686.28;;;21.30;100.00